Time;durP1;ratioP1;P1;durP2;ratioP2;P2;SDS_P1;SDS_P2;PMS_P1;PMS_P2;Temp;Humidity;BMP_temperature;BMP_pressure;BME280_temperature;BME280_humidity;BME280_pressure;Samples;Min_cycle;Max_cycle;Signal;HPM_P1;HPM_P2
2023/09/30 00:01:18;;;;;;;4.70;2.50;;;;;;;18.83;63.33;101442.41;4182493;28;20521;-64
2023/09/30 00:03:21;;;;;;;5.30;2.30;;;;;;;18.87;63.12;101444.19;4182331;28;20326;-64
2023/09/30 00:05:24;;;;;;;6.30;1.90;;;;;;;18.88;63.12;101434.50;4182096;28;20037;-64
2023/09/30 00:07:27;;;;;;;7.18;2.65;;;;;;;18.84;63.23;101438.91;4182095;28;20076;-64
2023/09/30 00:09:30;;;;;;;6.93;2.60;;;;;;;18.79;63.04;101438.91;4182299;28;20029;-64
2023/09/30 00:11:32;;;;;;;7.97;2.85;;;;;;;18.77;63.04;101443.31;4182203;28;20045;-64
2023/09/30 00:13:35;;;;;;;7.93;3.00;;;;;;;18.74;63.09;101445.09;4182165;28;20545;-64
2023/09/30 00:15:38;;;;;;;7.88;2.72;;;;;;;18.62;63.48;101452.13;4182117;28;20037;-64
2023/09/30 00:17:41;;;;;;;5.28;2.30;;;;;;;18.54;63.72;101451.28;4181889;28;20041;-64
2023/09/30 00:19:44;;;;;;;6.65;2.40;;;;;;;18.54;63.77;101458.31;4182055;28;21705;-64
2023/09/30 00:21:48;;;;;;;5.57;2.83;;;;;;;18.57;63.95;101458.28;4181881;28;20025;-64
2023/09/30 00:23:50;;;;;;;5.20;2.78;;;;;;;18.48;63.76;101454.78;4182677;28;20094;-64
2023/09/30 00:25:53;;;;;;;4.25;2.25;;;;;;;18.42;64.58;101461.84;4182152;28;20037;-64
2023/09/30 00:27:57;;;;;;;7.43;2.08;;;;;;;18.43;64.07;101464.47;4181649;28;20041;-64
2023/09/30 00:30:00;;;;;;;7.85;2.42;;;;;;;18.37;64.64;101467.13;4180725;28;20033;-64
2023/09/30 00:32:04;;;;;;;4.63;2.30;;;;;;;18.38;64.26;101470.63;4163990;28;20037;-64
2023/09/30 00:34:06;;;;;;;5.05;2.58;;;;;;;18.35;64.87;101460.97;4180609;28;20068;-64
2023/09/30 00:36:10;;;;;;;6.00;2.22;;;;;;;18.40;64.31;101469.75;4181097;28;20067;-64
2023/09/30 00:38:14;;;;;;;8.05;2.00;;;;;;;18.45;64.92;101470.59;4181294;28;20052;-64
2023/09/30 00:40:17;;;;;;;7.78;2.40;;;;;;;18.45;65.20;101473.25;4163708;28;20576;-64
2023/09/30 00:42:20;;;;;;;6.90;2.63;;;;;;;18.47;65.33;101475.88;4181726;28;20522;-64
2023/09/30 00:44:23;;;;;;;6.75;2.60;;;;;;;18.48;65.12;101478.50;4180680;28;20128;-64
2023/09/30 00:46:29;;;;;;;5.40;3.03;;;;;;;18.56;64.42;101481.13;4181490;28;20041;-64
2023/09/30 00:48:33;;;;;;;6.97;2.85;;;;;;;18.59;64.31;101477.63;4180523;28;20064;-64
2023/09/30 00:50:37;;;;;;;4.88;2.25;;;;;;;18.64;63.82;101478.47;4196845;28;20032;-64
2023/09/30 00:52:41;;;;;;;6.95;2.80;;;;;;;18.73;63.44;101473.16;4181628;28;20061;-64
2023/09/30 00:54:44;;;;;;;6.78;2.78;;;;;;;18.67;63.36;101475.81;4180300;28;20475;-64
2023/09/30 00:56:49;;;;;;;4.37;2.00;;;;;;;18.60;63.53;101482.00;4179981;28;20059;-64
2023/09/30 00:58:53;;;;;;;4.80;2.25;;;;;;;18.60;63.91;101476.72;4180195;28;20284;-64
2023/09/30 01:00:56;;;;;;;4.32;2.20;;;;;;;18.62;63.91;101485.50;4177411;28;20083;-64
2023/09/30 01:03:03;;;;;;;5.03;2.37;;;;;;;18.67;63.44;101481.09;4181595;28;20127;-64
2023/09/30 01:05:09;;;;;;;5.28;2.20;;;;;;;18.66;63.63;101476.69;4180035;28;20055;-64
2023/09/30 01:07:12;;;;;;;7.45;2.83;;;;;;;18.72;63.34;101468.78;4180187;28;20484;-64
2023/09/30 01:09:15;;;;;;;5.00;2.45;;;;;;;18.66;63.08;101468.78;4181235;28;20044;-64
2023/09/30 01:11:17;;;;;;;5.05;2.40;;;;;;;18.67;63.58;101470.56;4180369;28;20039;-64
2023/09/30 01:13:20;;;;;;;7.38;2.60;;;;;;;18.64;63.52;101473.19;4196502;28;20051;-64
2023/09/30 01:15:23;;;;;;;7.07;2.47;;;;;;;18.57;63.82;101472.34;4179897;28;20041;-64
2023/09/30 01:17:29;;;;;;;6.22;2.47;;;;;;;18.53;64.15;101469.72;4180622;28;20036;-64
2023/09/30 01:19:32;;;;;;;7.40;2.83;;;;;;;18.57;63.84;101468.84;4177804;28;20120;-64
2023/09/30 01:21:36;;;;;;;7.05;3.25;;;;;;;18.55;64.11;101471.47;4179835;28;20045;-64
2023/09/30 01:23:39;;;;;;;6.68;2.67;;;;;;;18.51;64.37;101468.84;4180957;28;20033;-64
2023/09/30 01:25:44;;;;;;;8.07;2.60;;;;;;;18.47;64.32;101467.97;4179818;28;20128;-64
2023/09/30 01:27:47;;;;;;;7.70;3.00;;;;;;;18.47;64.32;101468.88;4192821;28;20060;-64
2023/09/30 01:29:50;;;;;;;7.30;3.40;;;;;;;18.53;64.06;101469.72;4179654;28;20036;-64
2023/09/30 01:31:53;;;;;;;9.07;3.65;;;;;;;18.56;64.11;101475.88;4179623;28;20094;-64
2023/09/30 01:33:57;;;;;;;8.52;3.58;;;;;;;18.51;63.64;101482.03;4181077;28;20037;-64
2023/09/30 01:36:01;;;;;;;7.88;3.00;;;;;;;18.53;64.01;101480.25;4196423;28;20120;-64
2023/09/30 01:38:04;;;;;;;7.85;3.20;;;;;;;18.47;64.34;101476.75;4195820;28;20524;-64
2023/09/30 01:40:11;;;;;;;6.32;2.80;;;;;;;18.52;64.20;101478.53;4179433;28;20124;-64
2023/09/30 01:42:14;;;;;;;9.05;4.25;;;;;;;18.46;63.98;101485.53;4177987;28;20127;-64
2023/09/30 01:44:17;;;;;;;8.20;3.50;;;;;;;18.42;64.53;101482.91;4179358;28;20037;-64
2023/09/30 01:46:20;;;;;;;7.22;3.42;;;;;;;18.37;64.70;101482.94;4195948;28;20127;-64
2023/09/30 01:48:22;;;;;;;8.75;3.20;;;;;;;18.30;65.17;101483.81;4179090;28;20036;-63
2023/09/30 01:50:25;;;;;;;6.78;2.42;;;;;;;18.28;65.15;101496.09;4180877;28;20033;-63
2023/09/30 01:52:28;;;;;;;7.28;3.03;;;;;;;18.14;65.44;101504.88;4179196;28;20076;-63
2023/09/30 01:54:32;;;;;;;6.20;2.40;;;;;;;18.10;65.67;101505.75;4180403;28;20033;-63
2023/09/30 01:56:34;;;;;;;8.50;3.00;;;;;;;18.10;65.83;101499.63;4179418;28;20037;-63
2023/09/30 01:58:37;;;;;;;7.70;3.15;;;;;;;18.11;66.26;101504.88;4179124;28;20528;-63
2023/09/30 02:00:40;;;;;;;7.05;3.10;;;;;;;18.10;66.39;101495.22;4195690;28;20064;-63
2023/09/30 02:02:44;;;;;;;9.95;3.55;;;;;;;18.13;65.94;101495.22;4195686;28;20036;-63
2023/09/30 02:04:47;;;;;;;8.77;3.80;;;;;;;18.12;66.39;101496.13;4179701;28;20033;-63
2023/09/30 02:06:50;;;;;;;7.38;3.20;;;;;;;18.19;65.75;101491.72;4179014;28;20068;-64
2023/09/30 02:08:53;;;;;;;6.05;3.05;;;;;;;18.29;65.64;101495.22;4195587;28;20070;-64
2023/09/30 02:10:57;;;;;;;7.15;3.92;;;;;;;18.41;65.05;101489.06;4195417;28;20516;-64
2023/09/30 02:13:00;;;;;;;8.90;4.05;;;;;;;18.40;64.53;101482.03;4179048;28;20461;-64
2023/09/30 02:15:07;;;;;;;6.60;3.45;;;;;;;18.32;64.84;101492.56;4175804;28;20068;-64
2023/09/30 02:17:10;;;;;;;11.02;4.40;;;;;;;18.31;64.78;101496.06;4178473;28;20119;-64
2023/09/30 02:19:13;;;;;;;8.73;3.80;;;;;;;18.33;64.26;101488.22;4178720;28;20040;-64
2023/09/30 02:21:16;;;;;;;8.07;3.47;;;;;;;18.29;64.52;101482.06;4178712;28;20519;-64
2023/09/30 02:23:21;;;;;;;9.00;3.88;;;;;;;18.25;64.75;101490.81;4179997;28;20094;-64
2023/09/30 02:25:24;;;;;;;11.35;4.47;;;;;;;18.29;64.50;101482.06;4179097;28;20041;-64
2023/09/30 02:27:28;;;;;;;11.60;4.95;;;;;;;18.27;64.37;101495.22;4195214;28;20130;-64
2023/09/30 02:29:32;;;;;;;11.95;5.30;;;;;;;18.29;64.14;101492.59;4195430;28;20431;-64
2023/09/30 02:31:35;;;;;;;9.32;4.72;;;;;;;18.30;64.34;101496.97;4195238;28;20071;-64
2023/09/30 02:33:39;;;;;;;11.07;5.68;;;;;;;18.36;64.17;101499.59;4178762;28;20039;-64
2023/09/30 02:35:45;;;;;;;13.57;5.20;;;;;;;18.39;63.91;101506.63;4179962;28;20044;-65
2023/09/30 02:37:49;;;;;;;8.43;5.00;;;;;;;18.37;63.88;101495.19;4178113;28;20029;-64
2023/09/30 02:39:53;;;;;;;11.65;4.68;;;;;;;18.38;63.59;101496.97;4194834;28;20484;-64
2023/09/30 02:41:56;;;;;;;7.20;3.90;;;;;;;18.37;63.93;101505.72;4178588;28;20680;-64
2023/09/30 02:44:00;;;;;;;9.35;4.40;;;;;;;18.39;63.68;101510.13;4161916;28;20128;-64
2023/09/30 02:46:03;;;;;;;12.82;4.80;;;;;;;18.38;63.48;101511.00;4178376;28;20079;-64
2023/09/30 02:48:08;;;;;;;10.45;4.57;;;;;;;18.27;63.60;101497.00;4178441;28;20151;-64
2023/09/30 02:50:12;;;;;;;10.50;4.93;;;;;;;18.20;63.68;101508.41;4175900;28;20427;-64
2023/09/30 02:52:15;;;;;;;10.20;4.40;;;;;;;18.19;64.21;101507.50;4178454;28;20087;-64
2023/09/30 02:54:18;;;;;;;10.02;4.15;;;;;;;18.25;63.96;101501.34;4179651;28;20059;-64
2023/09/30 02:56:23;;;;;;;7.55;4.20;;;;;;;18.13;64.31;101508.38;4179666;28;20052;-64
2023/09/30 02:58:29;;;;;;;10.80;4.53;;;;;;;18.12;64.28;101503.09;4178311;28;20124;-64
2023/09/30 03:00:33;;;;;;;11.60;5.10;;;;;;;18.07;64.41;101512.78;4159071;28;20254;-64
2023/09/30 03:02:37;;;;;;;9.13;3.95;;;;;;;18.07;64.71;101524.16;4178295;28;20025;-64
2023/09/30 03:04:40;;;;;;;8.25;4.63;;;;;;;18.03;64.74;101526.81;4178508;28;20060;-64
2023/09/30 03:06:44;;;;;;;8.43;3.88;;;;;;;18.00;64.86;101532.94;4178124;28;20039;-64
2023/09/30 03:08:48;;;;;;;8.82;3.65;;;;;;;18.01;64.98;101524.19;4179458;28;20041;-64
2023/09/30 03:10:50;;;;;;;10.27;4.30;;;;;;;18.00;65.38;101519.78;4178562;28;20121;-64
2023/09/30 03:12:54;;;;;;;7.30;3.38;;;;;;;18.01;65.04;101524.19;4194856;28;20135;-64
2023/09/30 03:14:56;;;;;;;7.60;4.07;;;;;;;18.01;65.26;101532.06;4178132;28;20456;-64
2023/09/30 03:17:01;;;;;;;11.80;5.05;;;;;;;17.99;65.19;101525.94;4178183;28;20041;-64
2023/09/30 03:19:08;;;;;;;12.27;4.95;;;;;;;17.99;65.00;101520.69;4179607;28;20049;-64
2023/09/30 03:21:15;;;;;;;11.45;5.18;;;;;;;18.12;64.50;101514.53;4179654;28;20045;-64
2023/09/30 03:23:19;;;;;;;12.63;4.85;;;;;;;18.11;64.22;101507.50;4176728;28;20033;-64
2023/09/30 03:25:22;;;;;;;10.00;3.97;;;;;;;17.95;65.13;101506.63;4179444;28;20048;-64
2023/09/30 03:27:25;;;;;;;8.93;4.75;;;;;;;18.03;64.67;101497.88;4179352;28;20145;-64
2023/09/30 03:29:28;;;;;;;8.98;4.03;;;;;;;17.99;64.53;101499.63;4180223;28;20047;-64
2023/09/30 03:31:31;;;;;;;11.02;4.47;;;;;;;17.89;65.14;101509.22;4182994;28;20025;-64
2023/09/30 03:33:35;;;;;;;9.73;4.05;;;;;;;17.87;65.67;101515.34;4183011;28;20037;-64
2023/09/30 03:35:38;;;;;;;;;;;;;;;17.87;65.31;101518.00;4182142;28;20040;-64
2023/09/30 03:37:41;;;;;;;7.35;4.15;;;;;;;17.94;65.29;101530.31;4182466;28;20307;-64
2023/09/30 03:39:49;;;;;;;9.45;4.55;;;;;;;17.95;65.21;101529.44;4182593;28;20036;-64
2023/09/30 03:41:54;;;;;;;8.70;4.22;;;;;;;17.92;65.63;101532.06;4182397;28;20127;-64
2023/09/30 03:43:57;;;;;;;12.63;4.93;;;;;;;17.99;65.30;101536.47;4181646;28;20064;-64
2023/09/30 03:46:00;;;;;;;9.18;4.32;;;;;;;17.93;65.56;101529.44;4179635;28;20466;-64
2023/09/30 03:48:04;;;;;;;9.60;3.92;;;;;;;17.93;64.97;101534.72;4182260;28;20078;-64
2023/09/30 03:50:13;;;;;;;9.13;4.63;;;;;;;17.98;64.99;101534.69;4181261;28;20041;-64
2023/09/30 03:52:17;;;;;;;8.95;4.93;;;;;;;17.99;64.68;101536.47;4182434;28;20049;-64
2023/09/30 03:54:21;;;;;;;8.88;4.68;;;;;;;17.96;65.09;101544.34;4182193;28;20037;-64
2023/09/30 03:56:24;;;;;;;9.20;4.55;;;;;;;17.97;64.77;101538.19;4179932;28;20467;-64
2023/09/30 03:58:27;;;;;;;12.68;5.32;;;;;;;17.99;64.26;101541.72;4182245;28;20037;-64
2023/09/30 04:00:30;;;;;;;8.13;4.53;;;;;;;17.93;64.97;101531.19;4182204;28;20117;-64
2023/09/30 04:02:33;;;;;;;11.70;6.07;;;;;;;17.96;64.59;101541.72;4182355;28;20060;-64
2023/09/30 04:04:37;;;;;;;15.60;6.03;;;;;;;17.95;64.02;101534.72;4182204;28;20488;-64
2023/09/30 04:06:41;;;;;;;15.63;5.65;;;;;;;17.92;64.19;101539.97;4182157;28;20076;-64
2023/09/30 04:08:43;;;;;;;9.75;5.03;;;;;;;17.84;64.31;101542.53;4181147;28;20029;-64
2023/09/30 04:10:47;;;;;;;14.40;5.93;;;;;;;17.80;64.77;101536.41;4182320;28;20450;-64
2023/09/30 04:12:50;;;;;;;13.85;8.13;;;;;;;17.92;64.01;101542.59;4180896;28;20048;-64
2023/09/30 04:14:53;;;;;;;16.10;9.35;;;;;;;17.94;64.14;101543.47;4182111;28;20123;-63
2023/09/30 04:16:56;;;;;;;10.93;7.75;;;;;;;17.80;64.36;101533.78;4178990;28;20124;-63
2023/09/30 04:18:59;;;;;;;16.85;8.73;;;;;;;17.75;64.62;101537.25;4178751;28;20444;-63
2023/09/30 04:21:03;;;;;;;15.77;8.82;;;;;;;17.78;64.42;101543.44;4181993;28;20037;-64
2023/09/30 04:23:09;;;;;;;11.70;7.60;;;;;;;17.67;65.20;101555.66;4181760;28;20063;-63
2023/09/30 04:25:16;;;;;;;17.13;7.13;;;;;;;17.61;65.38;101548.63;4181607;28;20045;-63
2023/09/30 04:27:18;;;;;;;15.30;7.70;;;;;;;17.66;65.24;101559.16;4181621;28;20068;-64
2023/09/30 04:29:23;;;;;;;10.43;6.78;;;;;;;17.70;64.68;101555.66;4182035;28;20033;-64
2023/09/30 04:31:26;;;;;;;;;;;;;;;17.47;65.55;101558.22;4182242;28;20045;-64
2023/09/30 04:33:29;;;;;;;9.63;5.43;;;;;;;17.45;65.56;101558.22;4181682;28;19975;-64
2023/09/30 04:35:35;;;;;;;15.63;7.65;;;;;;;17.57;65.31;101564.41;4181686;28;20095;-64
2023/09/30 04:37:38;;;;;;;21.52;7.63;;;;;;;17.62;65.01;101567.91;4181398;28;20116;-64
2023/09/30 04:39:43;;;;;;;12.35;7.10;;;;;;;17.53;65.24;101562.63;4181894;28;20087;-64
2023/09/30 04:41:46;;;;;;;13.02;5.97;;;;;;;17.56;64.71;101563.50;4180426;28;20036;-64
2023/09/30 04:43:49;;;;;;;12.13;6.95;;;;;;;17.49;65.03;101566.13;4181579;28;20028;-64
2023/09/30 04:45:53;;;;;;;13.32;6.85;;;;;;;17.42;65.01;101567.84;4180386;28;20036;-64
2023/09/30 04:47:57;;;;;;;14.73;7.13;;;;;;;17.35;65.14;101566.09;4181422;28;20090;-64
2023/09/30 04:49:59;;;;;;;14.98;5.97;;;;;;;17.30;65.48;101575.69;4181551;28;20369;-64
2023/09/30 04:52:02;;;;;;;11.68;6.30;;;;;;;17.31;65.41;101580.09;4181426;28;20546;-64
2023/09/30 04:54:06;;;;;;;12.10;6.43;;;;;;;17.33;65.20;101588.84;4181620;28;20035;-64
2023/09/30 04:56:11;;;;;;;14.90;5.75;;;;;;;17.34;64.98;101578.34;4180919;28;20051;-64
2023/09/30 04:58:14;;;;;;;12.13;6.55;;;;;;;17.34;64.93;101575.69;4180724;28;20579;-64
2023/09/30 05:00:19;;;;;;;12.63;6.80;;;;;;;17.38;64.82;101572.22;4181446;28;20103;-64
2023/09/30 05:02:21;;;;;;;12.77;5.78;;;;;;;17.30;64.75;101573.94;4181454;28;20037;-64
2023/09/30 05:04:27;;;;;;;15.10;7.15;;;;;;;17.25;64.95;101573.91;4181237;28;20116;-64
2023/09/30 05:06:30;;;;;;;16.88;6.65;;;;;;;17.13;65.14;101571.25;4181518;28;20037;-64
2023/09/30 05:08:32;;;;;;;12.00;5.82;;;;;;;17.13;65.10;101558.09;4181153;28;20487;-64
2023/09/30 05:10:35;;;;;;;10.52;5.75;;;;;;;17.16;65.43;101552.84;4181208;28;20111;-64
2023/09/30 05:12:40;;;;;;;10.95;5.68;;;;;;;17.19;65.36;101570.41;4181302;28;20076;-64
2023/09/30 05:14:43;;;;;;;13.30;6.55;;;;;;;17.20;65.09;101566.88;4177841;28;20069;-64
2023/09/30 05:16:47;;;;;;;11.20;5.68;;;;;;;17.22;65.28;101575.66;4180856;28;20044;-64
2023/09/30 05:18:51;;;;;;;10.53;6.43;;;;;;;17.19;65.14;101583.53;4179767;28;20458;-64
2023/09/30 05:20:53;;;;;;;14.03;7.00;;;;;;;17.13;65.15;101586.09;4179111;28;20044;-63
2023/09/30 05:22:56;;;;;;;17.05;7.10;;;;;;;17.10;65.19;101585.25;4181082;28;20291;-63
2023/09/30 05:25:00;;;;;;;17.33;8.50;;;;;;;17.18;65.50;101589.66;4179721;28;20184;-63
2023/09/30 05:27:03;;;;;;;15.40;6.63;;;;;;;17.15;65.27;101580.00;4180619;28;20043;-63
2023/09/30 05:29:08;;;;;;;12.25;6.90;;;;;;;17.10;65.52;101576.50;4180319;28;20382;-64
2023/09/30 05:31:10;;;;;;;;;;;;;;;17.01;65.76;101581.66;4177897;28;20033;-63
2023/09/30 05:33:14;;;;;;;18.63;8.13;;;;;;;17.14;65.32;101590.50;4180629;28;19972;-63
2023/09/30 05:35:17;;;;;;;14.25;7.50;;;;;;;17.06;65.50;101596.59;4180824;28;20090;-63
2023/09/30 05:37:21;;;;;;;14.45;7.55;;;;;;;17.01;65.77;101600.97;4180445;28;20053;-63
2023/09/30 05:39:25;;;;;;;14.77;6.28;;;;;;;16.98;66.15;101607.94;4180004;28;20043;-63
2023/09/30 05:41:29;;;;;;;16.83;7.03;;;;;;;17.03;66.60;101596.59;4162909;28;20530;-63
2023/09/30 05:43:32;;;;;;;15.00;7.78;;;;;;;17.00;66.33;101608.84;4180593;28;20041;-63
2023/09/30 05:45:36;;;;;;;15.82;8.68;;;;;;;17.12;65.57;101626.41;4180660;28;20488;-63
2023/09/30 05:47:40;;;;;;;15.27;8.23;;;;;;;17.05;65.69;101623.72;4180890;28;20037;-63
2023/09/30 05:49:43;;;;;;;17.27;8.63;;;;;;;17.00;66.14;101614.97;4180478;28;20102;-63
2023/09/30 05:51:47;;;;;;;12.70;7.30;;;;;;;17.03;65.89;101614.97;4180152;28;20120;-63
2023/09/30 05:53:50;;;;;;;19.33;9.25;;;;;;;17.14;65.04;101611.53;4180505;28;20033;-63
2023/09/30 05:55:53;;;;;;;14.18;8.80;;;;;;;17.05;65.42;101601.84;4180760;28;20386;-63
2023/09/30 05:57:55;;;;;;;17.95;8.35;;;;;;;17.06;64.72;101607.09;4180318;28;20040;-63
2023/09/30 05:59:58;;;;;;;15.73;6.47;;;;;;;16.96;65.04;101613.19;4180395;28;20039;-63
2023/09/30 06:02:03;;;;;;;18.27;7.82;;;;;;;17.00;65.09;101609.69;4179243;28;20518;-63
2023/09/30 06:04:06;;;;;;;16.80;7.07;;;;;;;17.01;65.04;101610.56;4176947;28;20124;-63
2023/09/30 06:06:13;;;;;;;23.73;8.43;;;;;;;17.03;64.76;101608.84;4180107;28;20397;-63
2023/09/30 06:08:16;;;;;;;15.93;7.15;;;;;;;16.93;65.22;101618.41;4179234;28;20041;-63
2023/09/30 06:10:19;;;;;;;16.45;6.70;;;;;;;16.91;65.42;101609.66;4180229;28;20067;-63
2023/09/30 06:12:22;;;;;;;13.32;6.22;;;;;;;16.97;65.01;101608.78;4180231;28;20040;-63
2023/09/30 06:14:27;;;;;;;20.55;7.97;;;;;;;16.92;65.14;101607.03;4180540;28;20037;-63
2023/09/30 06:16:31;;;;;;;13.65;6.93;;;;;;;16.98;64.84;101611.44;4177464;28;20136;-63
2023/09/30 06:18:36;;;;;;;15.98;7.10;;;;;;;16.96;65.07;101612.31;4179113;28;20036;-64
2023/09/30 06:20:39;;;;;;;13.38;6.90;;;;;;;16.96;65.13;101607.06;4179325;28;20085;-64
2023/09/30 06:22:41;;;;;;;16.50;7.70;;;;;;;17.12;64.65;101610.66;4180521;28;20048;-64
2023/09/30 06:24:44;;;;;;;15.70;6.95;;;;;;;17.05;64.81;101620.22;4180253;28;20496;-63
2023/09/30 06:26:48;;;;;;;16.58;6.80;;;;;;;17.00;65.03;101614.97;4180066;28;20060;-63
2023/09/30 06:28:54;;;;;;;12.63;5.90;;;;;;;17.00;65.32;101614.97;4180449;28;20067;-63
2023/09/30 06:30:57;;;;;;;20.73;8.05;;;;;;;17.05;64.93;101607.97;4178634;28;20405;-63
2023/09/30 06:33:01;;;;;;;13.27;6.15;;;;;;;17.13;64.69;101600.16;4175688;28;20684;-63
2023/09/30 06:35:10;;;;;;;19.42;7.22;;;;;;;17.13;64.66;101612.38;4180024;28;20579;-63
2023/09/30 06:37:12;;;;;;;12.43;6.00;;;;;;;17.09;64.94;101601.88;4179589;28;20053;-63
2023/09/30 06:39:16;;;;;;;14.23;6.55;;;;;;;17.14;64.94;101604.50;4178748;28;20445;-63
2023/09/30 06:41:20;;;;;;;12.73;6.95;;;;;;;17.14;64.53;101612.41;4180258;28;20051;-63
2023/09/30 06:43:23;;;;;;;19.55;7.00;;;;;;;17.16;64.58;101621.19;4179643;28;20034;-63
2023/09/30 06:45:26;;;;;;;18.02;6.57;;;;;;;17.21;64.31;101629.09;4179721;28;20054;-64
2023/09/30 06:47:33;;;;;;;16.83;6.15;;;;;;;17.20;64.19;101632.56;4178265;28;20063;-63
2023/09/30 06:49:36;;;;;;;12.32;5.55;;;;;;;17.19;63.92;101625.59;4179674;28;20041;-63
2023/09/30 06:51:40;;;;;;;15.85;6.82;;;;;;;17.23;63.56;101633.50;4178837;28;20037;-63
2023/09/30 06:53:43;;;;;;;13.73;5.75;;;;;;;17.29;63.17;101637.91;4179553;28;20029;-63
2023/09/30 06:55:46;;;;;;;14.85;6.05;;;;;;;17.30;63.05;101652.78;4179829;28;20435;-63
2023/09/30 06:57:49;;;;;;;13.48;5.75;;;;;;;17.33;63.26;101650.16;4178455;28;20627;-64
2023/09/30 06:59:51;;;;;;;15.73;6.93;;;;;;;17.43;63.15;101653.72;4178922;28;20045;-65
2023/09/30 07:01:54;;;;;;;13.65;6.03;;;;;;;17.45;62.88;101650.25;4178481;28;20484;-65
2023/09/30 07:03:57;;;;;;;15.50;6.60;;;;;;;17.39;62.97;101642.34;4178712;28;20364;-64
2023/09/30 07:06:01;;;;;;;16.90;7.13;;;;;;;17.43;62.75;101643.22;4180363;28;20218;-65
2023/09/30 07:08:05;;;;;;;17.23;6.68;;;;;;;17.35;62.93;101637.06;4179940;28;20514;-65
2023/09/30 07:10:09;;;;;;;15.60;6.90;;;;;;;17.32;63.38;101640.53;4180514;28;20129;-64
2023/09/30 07:12:12;;;;;;;15.57;7.32;;;;;;;17.45;63.57;101652.00;4179086;28;20033;-65
2023/09/30 07:14:15;;;;;;;17.40;7.65;;;;;;;17.44;63.48;101656.38;4174791;28;20037;-65
2023/09/30 07:16:18;;;;;;;16.48;6.55;;;;;;;17.51;63.26;101656.38;4179025;28;20045;-66
2023/09/30 07:18:21;;;;;;;11.23;6.25;;;;;;;17.46;63.47;101664.25;4180361;28;20041;-64
2023/09/30 07:20:23;;;;;;;16.35;7.30;;;;;;;17.50;63.38;101668.66;4174456;28;20041;-65
2023/09/30 07:22:26;;;;;;;16.77;7.82;;;;;;;17.53;63.16;101675.69;4179804;28;20037;-65
2023/09/30 07:24:50;;;;;;;16.33;9.45;;;;;;;17.60;62.54;101673.09;4173787;28;20047;-65
2023/09/30 07:26:53;;;;;;;24.30;8.65;;;;;;;17.50;62.70;101680.94;4172836;28;20398;-65
2023/09/30 07:28:58;;;;;;;16.75;7.72;;;;;;;17.49;62.03;101679.19;4179840;28;20043;-65
2023/09/30 07:31:01;;;;;;;;;;;;;;;17.44;62.67;101680.03;4180336;28;20411;-66
2023/09/30 07:33:04;;;;;;;16.10;7.43;;;;;;;17.51;62.70;101669.53;4179684;28;20298;-65
2023/09/30 07:35:08;;;;;;;14.32;6.50;;;;;;;17.51;62.23;101661.66;4179826;28;20037;-65
2023/09/30 07:37:12;;;;;;;16.48;6.70;;;;;;;17.47;62.40;101655.50;4178272;28;20072;-65
2023/09/30 07:39:15;;;;;;;15.20;7.10;;;;;;;17.50;62.68;101650.25;4179793;28;20045;-65
2023/09/30 07:41:19;;;;;;;14.50;6.47;;;;;;;17.59;62.11;101647.66;4179954;28;20402;-65
2023/09/30 07:43:22;;;;;;;13.38;6.80;;;;;;;17.44;62.71;101664.25;4179351;28;20420;-65
2023/09/30 07:45:25;;;;;;;14.70;6.22;;;;;;;17.45;62.96;101670.41;4179406;28;20037;-65
2023/09/30 07:47:28;;;;;;;13.93;6.20;;;;;;;17.50;62.53;101667.78;4179283;28;20060;-66
2023/09/30 07:49:32;;;;;;;16.48;7.38;;;;;;;17.52;62.21;101666.03;4179776;28;20037;-65
2023/09/30 07:51:35;;;;;;;19.90;7.85;;;;;;;17.54;62.18;101664.31;4174435;28;20259;-65
2023/09/30 07:53:38;;;;;;;18.63;7.68;;;;;;;17.49;62.79;101679.19;4179431;28;20041;-65
2023/09/30 07:55:41;;;;;;;19.70;9.10;;;;;;;17.48;62.77;101670.41;4178402;28;20400;-65
2023/09/30 07:57:45;;;;;;;18.55;8.02;;;;;;;17.55;62.78;101681.81;4178112;28;20083;-65
2023/09/30 07:59:49;;;;;;;;;;;;;;;17.58;62.88;101673.94;4178894;28;20564;-65
2023/09/30 08:01:52;;;;;;;14.50;7.13;;;;;;;17.55;63.09;101672.22;4179337;28;19925;-65
2023/09/30 08:03:55;;;;;;;15.98;7.93;;;;;;;17.65;62.83;101673.09;4179810;28;20029;-65
2023/09/30 08:05:59;;;;;;;17.75;7.80;;;;;;;17.76;62.01;101665.28;4179539;28;20037;-65
2023/09/30 08:08:03;;;;;;;19.65;8.32;;;;;;;17.77;61.74;101662.66;4179379;28;20048;-65
2023/09/30 08:10:12;;;;;;;17.52;8.93;;;;;;;17.80;62.04;101652.16;4179413;28;20041;-65
2023/09/30 08:12:15;;;;;;;12.65;7.72;;;;;;;17.78;61.81;101663.53;4179515;28;20037;-65
2023/09/30 08:14:20;;;;;;;15.68;6.22;;;;;;;17.78;61.06;101672.31;4179256;28;20091;-65
2023/09/30 08:16:22;;;;;;;14.20;6.20;;;;;;;17.82;61.00;101678.44;4180565;28;20068;-65
2023/09/30 08:18:25;;;;;;;16.85;6.78;;;;;;;17.86;60.49;101677.59;4181871;28;20033;-65
2023/09/30 08:20:28;;;;;;;11.75;6.50;;;;;;;17.97;59.92;101672.38;4182346;28;20139;-65
2023/09/30 08:22:30;;;;;;;17.63;7.05;;;;;;;17.92;60.51;101661.00;4182286;28;20067;-65
2023/09/30 08:24:33;;;;;;;11.27;5.65;;;;;;;17.91;60.24;101683.75;4182308;28;20033;-65
2023/09/30 08:26:37;;;;;;;12.23;5.95;;;;;;;17.98;60.60;101671.53;4177995;28;20041;-66
2023/09/30 08:28:40;;;;;;;13.40;5.20;;;;;;;17.93;60.06;101662.72;4180902;28;20033;-65
2023/09/30 08:30:44;;;;;;;16.02;6.85;;;;;;;18.06;59.50;101663.63;4182128;28;20650;-66
2023/09/30 08:32:47;;;;;;;18.95;7.13;;;;;;;18.02;60.07;101665.41;4180652;28;20041;-66
2023/09/30 08:34:49;;;;;;;13.73;6.32;;;;;;;18.12;59.58;101675.06;4182267;28;20091;-65
2023/09/30 08:36:52;;;;;;;15.38;7.10;;;;;;;18.20;57.54;101671.59;4181724;28;20500;-65
2023/09/30 08:38:55;;;;;;;12.43;6.13;;;;;;;18.16;57.89;101685.59;4182161;28;20519;-65
2023/09/30 08:40:59;;;;;;;12.70;5.90;;;;;;;18.09;58.75;101684.69;4181892;28;20123;-65
2023/09/30 08:43:05;;;;;;;12.27;5.53;;;;;;;18.12;59.20;101688.22;4182134;28;20044;-65
2023/09/30 08:45:12;;;;;;;16.30;7.15;;;;;;;18.31;58.74;101690.88;4181898;28;20037;-65
2023/09/30 08:47:16;;;;;;;17.65;6.90;;;;;;;18.26;58.54;101690.88;4181554;28;20111;-65
2023/09/30 08:49:19;;;;;;;15.73;8.55;;;;;;;18.28;59.19;101690.88;4181878;28;20045;-65
2023/09/30 08:51:23;;;;;;;13.63;7.40;;;;;;;18.26;59.39;101677.72;4181941;28;20037;-65
2023/09/30 08:53:26;;;;;;;13.38;7.93;;;;;;;18.31;59.69;101686.53;4177477;28;20124;-65
2023/09/30 08:55:29;;;;;;;17.85;9.95;;;;;;;18.47;59.32;101681.25;4181715;28;20489;-66
2023/09/30 08:57:32;;;;;;;17.10;10.43;;;;;;;18.47;58.69;101697.06;4181330;28;20061;-65
2023/09/30 08:59:36;;;;;;;23.10;11.10;;;;;;;18.54;58.80;101697.97;4181908;28;20040;-65
2023/09/30 09:01:40;;;;;;;15.27;8.67;;;;;;;18.44;58.80;101689.16;4181498;28;20083;-65
2023/09/30 09:03:47;;;;;;;;;;;;;;;18.45;59.35;101681.25;4182116;28;20033;-65
2023/09/30 09:05:55;;;;;;;19.88;11.68;;;;;;;18.67;58.20;101683.91;4181610;28;19920;-66
2023/09/30 09:07:58;;;;;;;18.67;9.95;;;;;;;18.56;58.80;101686.56;4181353;28;20071;-65
2023/09/30 09:10:04;;;;;;;19.95;11.82;;;;;;;18.68;58.49;101683.03;4181728;28;20060;-65
2023/09/30 09:12:09;;;;;;;16.88;10.68;;;;;;;18.73;58.70;101683.91;4176965;28;20507;-65
2023/09/30 09:14:12;;;;;;;21.63;12.80;;;;;;;18.82;58.00;101685.66;4181364;28;20160;-66
2023/09/30 09:16:13;;;;;;;17.85;10.45;;;;;;;18.67;57.88;101689.19;4181445;28;20041;-65
2023/09/30 09:18:32;;;;;;;25.98;11.88;;;;;;;18.86;57.70;101690.09;4181507;28;20073;-66
2023/09/30 09:20:37;;;;;;;29.73;11.25;;;;;;;18.88;58.37;101703.25;4181221;28;20064;-65
2023/09/30 09:22:40;;;;;;;16.08;10.40;;;;;;;18.86;58.09;101691.81;4181584;28;20487;-65
2023/09/30 09:24:43;;;;;;;15.35;9.00;;;;;;;18.86;58.42;101690.09;4181177;28;20041;-66
2023/09/30 09:26:45;;;;;;;14.77;8.23;;;;;;;18.93;59.05;101685.72;4179197;28;20037;-66
2023/09/30 09:28:48;;;;;;;21.27;10.80;;;;;;;19.13;57.89;101686.56;4181107;28;20140;-65
2023/09/30 09:30:51;;;;;;;18.38;10.60;;;;;;;19.38;56.94;101683.88;4180142;28;20096;-66
2023/09/30 09:33:05;;;;;;;16.80;9.77;;;;;;;19.33;57.19;101686.53;4181074;28;20047;-65